Time;durP1;ratioP1;P1;durP2;ratioP2;P2;SDS_P1;SDS_P2;PMS_P1;PMS_P2;Temp;Humidity;BMP_temperature;BMP_pressure;BME280_temperature;BME280_humidity;BME280_pressure;Samples;Min_cycle;Max_cycle;Signal;HPM_P1;HPM_P2
2022/07/19 00:01:37;;;;;;;14.07;8.50;;;;;;;15.58;100.00;100521.75;5016961;28;20040;-77
2022/07/19 00:04:02;;;;;;;20.27;8.82;;;;;;;15.40;100.00;100505.38;5027099;28;20044;-78
2022/07/19 00:06:31;;;;;;;18.30;9.15;;;;;;;15.39;100.00;100515.38;5014011;28;20047;-77
2022/07/19 00:08:57;;;;;;;14.30;8.02;;;;;;;15.35;100.00;100508.72;5041459;28;20055;-79
2022/07/19 00:11:22;;;;;;;14.98;8.10;;;;;;;15.28;100.00;100513.31;5029786;28;20462;-79
2022/07/19 00:13:48;;;;;;;13.77;7.97;;;;;;;15.23;100.00;100496.06;5041773;28;20595;-76
2022/07/19 00:16:14;;;;;;;15.85;7.82;;;;;;;15.19;100.00;100490.22;5053549;28;20500;-77
2022/07/19 00:18:40;;;;;;;14.00;7.85;;;;;;;15.14;100.00;100495.47;5034649;28;20028;-77
2022/07/19 00:21:06;;;;;;;15.27;8.15;;;;;;;15.13;100.00;100510.84;5030770;28;20031;-79
2022/07/19 00:23:32;;;;;;;16.27;8.73;;;;;;;15.09;100.00;100535.88;5069665;28;20024;-78
2022/07/19 00:25:57;;;;;;;14.70;9.45;;;;;;;15.18;100.00;100558.97;5022984;28;20402;-78
2022/07/19 00:28:23;;;;;;;15.82;9.02;;;;;;;15.37;100.00;100582.50;5052233;28;20036;-77
2022/07/19 00:30:49;;;;;;;14.55;8.88;;;;;;;15.41;100.00;100565.81;5037722;28;20029;-76
2022/07/19 00:33:14;;;;;;;14.10;8.88;;;;;;;15.30;100.00;100565.41;5063183;28;20035;-77
2022/07/19 00:35:40;;;;;;;16.42;8.65;;;;;;;15.24;100.00;100579.81;5016585;28;20490;-79
2022/07/19 00:38:11;;;;;;;13.30;8.35;;;;;;;15.21;100.00;100592.94;5035760;28;20033;-78
2022/07/19 00:40:37;;;;;;;15.02;8.07;;;;;;;15.14;100.00;100587.53;5043728;28;20032;-78
2022/07/19 00:43:04;;;;;;;16.42;9.00;;;;;;;15.09;100.00;100603.56;5033964;28;20401;-78
2022/07/19 00:45:29;;;;;;;13.15;7.90;;;;;;;15.12;100.00;100605.84;5058287;28;20039;-78
2022/07/19 00:47:55;;;;;;;13.43;8.27;;;;;;;15.01;100.00;100546.94;5045304;28;20150;-76
2022/07/19 00:50:22;;;;;;;15.95;7.88;;;;;;;14.93;100.00;100554.22;5049150;28;20035;-78
2022/07/19 00:52:54;;;;;;;17.75;8.95;;;;;;;15.03;100.00;100596.25;5033981;28;20047;-78
2022/07/19 00:55:21;;;;;;;18.65;8.90;;;;;;;15.06;100.00;100590.47;5052727;28;20028;-79
2022/07/19 00:57:47;;;;;;;10.82;7.57;;;;;;;14.94;100.00;100566.69;5048779;28;20490;-77
2022/07/19 01:00:15;;;;;;;12.23;7.97;;;;;;;14.95;100.00;100579.22;5047401;28;20028;-79
2022/07/19 01:02:41;;;;;;;17.00;8.02;;;;;;;14.98;100.00;100566.28;5032937;28;20041;-78
2022/07/19 01:05:10;;;;;;;11.30;8.30;;;;;;;14.95;100.00;100540.44;5032031;28;22670;-76
2022/07/19 01:07:37;;;;;;;15.05;8.52;;;;;;;14.97;100.00;100556.50;5052845;28;20036;-77
2022/07/19 01:10:05;;;;;;;18.05;8.80;;;;;;;15.03;100.00;100580.03;5033338;28;20131;-76
2022/07/19 01:12:32;;;;;;;13.07;8.45;;;;;;;14.99;100.00;100552.53;5048565;28;20021;-77
2022/07/19 01:14:58;;;;;;;13.90;7.78;;;;;;;15.01;100.00;100574.84;5032061;28;20125;-76
2022/07/19 01:17:24;;;;;;;13.95;8.63;;;;;;;15.08;100.00;100588.34;5050182;28;20040;-76
2022/07/19 01:19:50;;;;;;;13.32;8.15;;;;;;;15.03;100.00;100542.97;5066486;28;20531;-77
2022/07/19 01:22:16;;;;;;;13.00;7.90;;;;;;;15.04;100.00;100532.97;5032419;28;20036;-77
2022/07/19 01:24:41;;;;;;;10.43;6.63;;;;;;;15.07;100.00;100565.03;5028711;28;20511;-79
2022/07/19 01:27:07;;;;;;;17.80;8.20;;;;;;;15.06;100.00;100564.22;5013683;28;20126;-76
2022/07/19 01:29:36;;;;;;;13.95;7.43;;;;;;;15.04;100.00;100530.25;5060738;28;20134;-76
2022/07/19 01:32:05;;;;;;;13.52;7.78;;;;;;;15.04;100.00;100541.09;5049006;28;20078;-76
2022/07/19 01:34:32;;;;;;;13.70;7.53;;;;;;;15.09;100.00;100561.06;5065451;28;20139;-76
2022/07/19 01:36:58;;;;;;;12.88;7.30;;;;;;;15.07;100.00;100541.50;5050075;28;20038;-76
2022/07/19 01:39:23;;;;;;;15.70;7.60;;;;;;;15.03;100.00;100517.75;5044934;28;20036;-76
2022/07/19 01:41:49;;;;;;;14.68;8.15;;;;;;;14.88;100.00;100523.41;5049781;28;20552;-77
2022/07/19 01:44:15;;;;;;;9.68;6.85;;;;;;;14.93;100.00;100510.91;5031000;28;20060;-79
2022/07/19 01:46:41;;;;;;;10.50;7.72;;;;;;;15.00;100.00;100499.22;5030344;28;20039;-76
2022/07/19 01:49:07;;;;;;;12.35;7.10;;;;;;;15.05;100.00;100534.63;5041877;28;20040;-76
2022/07/19 01:51:32;;;;;;;11.70;7.35;;;;;;;15.07;100.00;100537.97;5041666;28;20033;-78
2022/07/19 01:53:58;;;;;;;13.80;7.28;;;;;;;15.04;100.00;100506.72;5009646;28;20463;-77
2022/07/19 01:56:23;;;;;;;14.48;7.72;;;;;;;15.07;100.00;100527.94;5018620;28;20028;-77
2022/07/19 01:58:49;;;;;;;13.27;7.47;;;;;;;15.01;100.00;100534.22;5053939;28;20040;-77
2022/07/19 02:01:15;;;;;;;14.45;7.78;;;;;;;14.89;100.00;100511.53;5065436;28;20024;-78
2022/07/19 02:03:40;;;;;;;13.52;7.85;;;;;;;14.87;100.00;100519.88;5015035;28;20044;-78
2022/07/19 02:06:06;;;;;;;12.00;7.30;;;;;;;14.72;100.00;100511.13;5029516;28;20369;-77
2022/07/19 02:08:32;;;;;;;14.80;7.63;;;;;;;14.75;100.00;100509.88;5047120;28;20041;-77
2022/07/19 02:10:59;;;;;;;10.73;7.28;;;;;;;14.64;100.00;100506.75;5036059;28;20048;-77
2022/07/19 02:13:25;;;;;;;13.13;7.20;;;;;;;14.68;100.00;100518.00;5042825;28;20040;-77
2022/07/19 02:15:50;;;;;;;10.43;7.38;;;;;;;14.72;100.00;100519.25;5066129;28;20031;-76
2022/07/19 02:18:16;;;;;;;13.10;7.20;;;;;;;14.65;100.00;100502.19;5034242;28;20434;-76
2022/07/19 02:20:42;;;;;;;12.20;8.15;;;;;;;14.64;100.00;100524.88;5045125;28;20032;-79
2022/07/19 02:23:07;;;;;;;14.30;7.22;;;;;;;14.52;100.00;100508.38;5032921;28;20040;-75
2022/07/19 02:25:33;;;;;;;13.30;7.38;;;;;;;14.48;100.00;100509.84;5016529;28;20252;-76
2022/07/19 02:28:00;;;;;;;13.80;7.82;;;;;;;14.50;100.00;100502.34;5012972;28;20131;-77
2022/07/19 02:30:25;;;;;;;13.68;8.13;;;;;;;14.42;100.00;100508.81;5032283;28;20929;-76
2022/07/19 02:32:51;;;;;;;13.68;7.70;;;;;;;14.34;100.00;100500.06;5042661;28;20036;-76
2022/07/19 02:35:18;;;;;;;15.05;9.00;;;;;;;14.26;100.00;100503.78;5028790;28;20378;-77
2022/07/19 02:37:44;;;;;;;12.05;8.25;;;;;;;14.21;100.00;100517.09;5041843;28;20057;-77
2022/07/19 02:40:10;;;;;;;14.23;8.35;;;;;;;14.15;100.00;100496.28;5012103;28;20047;-76
2022/07/19 02:42:36;;;;;;;15.48;8.02;;;;;;;14.11;100.00;100497.75;5044041;28;20043;-76
2022/07/19 02:45:03;;;;;;;13.07;9.18;;;;;;;14.24;100.00;100514.00;5064548;28;20413;-76
2022/07/19 02:47:29;;;;;;;15.60;9.07;;;;;;;14.24;100.00;100511.28;5024482;28;20132;-78
2022/07/19 02:49:54;;;;;;;14.90;8.38;;;;;;;14.12;100.00;100502.13;5032123;28;20453;-76
2022/07/19 02:52:20;;;;;;;16.42;8.82;;;;;;;14.23;100.00;100509.59;5050045;28;20037;-76
2022/07/19 02:54:45;;;;;;;13.52;8.48;;;;;;;14.12;100.00;100485.88;5027954;28;20032;-76
2022/07/19 02:57:11;;;;;;;14.02;8.77;;;;;;;14.08;100.00;100497.13;5025504;28;20123;-76
2022/07/19 02:59:37;;;;;;;13.25;8.57;;;;;;;14.09;100.00;100479.03;5051542;28;20116;-77
2022/07/19 03:02:02;;;;;;;16.70;9.02;;;;;;;14.00;100.00;100478.38;5044586;28;20525;-76
2022/07/19 03:04:28;;;;;;;13.45;7.90;;;;;;;14.04;100.00;100506.66;5006959;28;20479;-76
2022/07/19 03:06:54;;;;;;;12.18;8.38;;;;;;;14.03;100.00;100499.59;5029987;28;20482;-76
2022/07/19 03:09:20;;;;;;;13.68;8.48;;;;;;;14.07;100.00;100498.13;5050293;28;20032;-76
2022/07/19 03:11:48;;;;;;;14.18;7.88;;;;;;;14.08;100.00;100507.94;5043876;28;21069;-77
2022/07/19 03:14:14;;;;;;;13.18;8.32;;;;;;;14.10;100.00;100493.38;5047884;28;20505;-77
2022/07/19 03:16:39;;;;;;;12.35;7.68;;;;;;;14.11;100.00;100500.47;5028426;28;20060;-78
2022/07/19 03:19:05;;;;;;;10.70;6.65;;;;;;;14.09;100.00;100497.94;5024793;28;20041;-77
2022/07/19 03:21:31;;;;;;;13.57;7.28;;;;;;;14.11;100.00;100501.28;5047265;28;20473;-77
2022/07/19 03:23:57;;;;;;;11.75;7.57;;;;;;;14.20;100.00;100496.50;5044185;28;20103;-76
2022/07/19 03:26:22;;;;;;;12.68;8.75;;;;;;;14.18;100.00;100504.81;5031632;28;20604;-76
2022/07/19 03:28:48;;;;;;;12.68;8.05;;;;;;;14.15;100.00;100504.41;5030094;28;20036;-77
2022/07/19 03:31:14;;;;;;;11.88;6.75;;;;;;;14.25;100.00;100504.84;5067990;28;20470;-77
2022/07/19 03:33:39;;;;;;;9.43;6.78;;;;;;;14.22;100.00;100497.97;5034714;28;20032;-78
2022/07/19 03:36:05;;;;;;;12.77;7.05;;;;;;;14.37;100.00;100516.72;5053521;28;20033;-76
2022/07/19 03:38:31;;;;;;;16.30;6.95;;;;;;;14.42;100.00;100514.22;5031926;28;20398;-78
2022/07/19 03:40:56;;;;;;;10.40;6.57;;;;;;;14.38;100.00;100491.31;5014618;28;20254;-76
2022/07/19 03:43:23;;;;;;;10.15;6.57;;;;;;;14.47;100.00;100510.88;5033240;28;20048;-76
2022/07/19 03:45:48;;;;;;;9.05;5.55;;;;;;;14.49;100.00;100488.00;5053246;28;20051;-76
2022/07/19 03:48:14;;;;;;;10.90;6.82;;;;;;;14.51;100.00;100474.25;5026421;28;20041;-76
2022/07/19 03:50:40;;;;;;;10.18;6.18;;;;;;;14.59;100.00;100481.38;5044990;28;20470;-77
2022/07/19 03:53:06;;;;;;;9.00;6.47;;;;;;;14.61;100.00;100480.13;5067100;28;20028;-76
2022/07/19 03:55:32;;;;;;;7.80;6.10;;;;;;;14.54;100.00;100470.34;5034398;28;20381;-76
2022/07/19 03:57:58;;;;;;;8.88;6.18;;;;;;;14.61;100.00;100488.25;5029082;28;20024;-76
2022/07/19 04:00:23;;;;;;;8.00;5.78;;;;;;;14.56;100.00;100482.63;5010594;28;20619;-77
2022/07/19 04:02:49;;;;;;;10.55;6.00;;;;;;;14.52;100.00;100486.75;5050732;28;20039;-76
2022/07/19 04:05:15;;;;;;;8.90;5.63;;;;;;;14.51;100.00;100488.63;5034947;28;20037;-77
2022/07/19 04:07:40;;;;;;;9.98;5.90;;;;;;;14.39;100.00;100479.44;5033951;28;20083;-76
2022/07/19 04:10:07;;;;;;;10.30;5.47;;;;;;;14.37;100.00;100478.84;5024896;28;20074;-76
2022/07/19 04:12:34;;;;;;;15.43;6.15;;;;;;;14.29;100.00;100474.47;5035385;28;20470;-76
2022/07/19 04:15:00;;;;;;;10.05;6.38;;;;;;;14.23;100.00;100494.22;5032332;28;20517;-77
2022/07/19 04:17:26;;;;;;;8.90;5.90;;;;;;;14.21;100.00;100493.59;5016848;28;20028;-77
2022/07/19 04:19:52;;;;;;;7.55;5.57;;;;;;;14.00;100.00;100461.34;5042729;28;20033;-77
2022/07/19 04:22:18;;;;;;;10.80;6.03;;;;;;;14.19;100.00;100492.97;5048926;28;20389;-76
2022/07/19 04:24:46;;;;;;;10.20;6.22;;;;;;;14.18;100.00;100487.75;5012927;28;20036;-77
2022/07/19 04:27:12;;;;;;;10.30;6.45;;;;;;;14.16;100.00;100487.16;5037455;28;20040;-77
2022/07/19 04:29:38;;;;;;;10.38;5.68;;;;;;;14.16;100.00;100520.44;5026923;28;22081;-77
2022/07/19 04:32:04;;;;;;;8.00;5.97;;;;;;;14.17;100.00;100516.69;5032445;28;20047;-76
2022/07/19 04:34:29;;;;;;;10.57;6.38;;;;;;;14.20;100.00;100526.25;5017109;28;20120;-75
2022/07/19 04:36:55;;;;;;;9.68;6.70;;;;;;;14.14;100.00;100521.66;5057180;28;20025;-76
2022/07/19 04:39:20;;;;;;;12.55;7.35;;;;;;;14.18;100.00;100529.16;5043005;28;20492;-76
2022/07/19 04:41:46;;;;;;;12.70;6.75;;;;;;;14.15;100.00;100536.84;5033332;28;20037;-77
2022/07/19 04:44:11;;;;;;;11.30;6.65;;;;;;;14.09;100.00;100533.09;5044464;28;20040;-76
2022/07/19 04:46:37;;;;;;;12.32;6.13;;;;;;;14.01;100.00;100514.34;5018545;28;20048;-76
2022/07/19 04:49:03;;;;;;;15.13;6.57;;;;;;;13.97;100.00;100523.91;5068169;28;20032;-75
2022/07/19 04:51:28;;;;;;;11.77;7.07;;;;;;;13.94;100.00;100510.81;5032751;28;20466;-78
2022/07/19 04:53:54;;;;;;;12.75;7.15;;;;;;;13.95;100.00;100510.59;5033300;28;20036;-75
2022/07/19 04:56:19;;;;;;;8.95;5.80;;;;;;;13.94;100.00;100498.09;5032873;28;20390;-77
2022/07/19 04:58:45;;;;;;;9.57;5.65;;;;;;;13.92;100.00;100497.50;5018330;28;20464;-76
2022/07/19 05:01:11;;;;;;;10.27;6.13;;;;;;;13.98;100.00;100501.25;5033384;28;20418;-76
2022/07/19 05:03:36;;;;;;;11.93;6.05;;;;;;;13.87;100.00;100483.78;5035143;28;20400;-77
2022/07/19 05:06:02;;;;;;;10.73;7.00;;;;;;;13.92;100.00;100499.34;5037209;28;20032;-77
2022/07/19 05:08:28;;;;;;;8.75;5.63;;;;;;;13.90;100.00;100502.28;5038284;28;20024;-77
2022/07/19 05:10:53;;;;;;;10.95;6.78;;;;;;;13.93;100.00;100493.75;5023364;28;20067;-76
2022/07/19 05:13:19;;;;;;;15.23;6.85;;;;;;;13.97;100.00;100495.03;5021018;28;20379;-76
2022/07/19 05:15:53;;;;;;;10.88;5.97;;;;;;;14.11;100.00;100495.06;5017728;28;20056;-75
2022/07/19 05:18:21;;;;;;;8.98;6.00;;;;;;;14.21;100.00;100499.00;5014321;28;20047;-76
2022/07/19 05:20:47;;;;;;;11.40;7.13;;;;;;;14.36;100.00;100512.31;5045925;28;20114;-76
2022/07/19 05:23:13;;;;;;;12.00;6.82;;;;;;;14.46;100.00;100510.06;5035153;28;20349;-76
2022/07/19 05:25:40;;;;;;;12.48;6.50;;;;;;;14.51;100.00;100502.16;5006810;28;20136;-75
2022/07/19 05:28:06;;;;;;;12.48;6.70;;;;;;;14.65;100.00;100503.00;5029870;28;20032;-76
2022/07/19 05:30:32;;;;;;;8.82;6.05;;;;;;;14.97;100.00;100497.75;5055336;28;20059;-76
2022/07/19 05:32:57;;;;;;;11.55;6.57;;;;;;;15.29;100.00;100498.72;5022149;28;20387;-78
2022/07/19 05:35:23;;;;;;;8.63;5.88;;;;;;;15.60;100.00;100495.28;5039984;28;20036;-77
2022/07/19 05:37:48;;;;;;;11.70;6.53;;;;;;;15.88;100.00;100474.31;5004675;28;20024;-76
2022/07/19 05:40:14;;;;;;;10.90;6.45;;;;;;;16.05;100.00;100470.03;5033685;28;20082;-77
2022/07/19 05:42:40;;;;;;;9.80;5.43;;;;;;;16.22;100.00;100476.59;5011272;28;20029;-77
2022/07/19 05:45:06;;;;;;;11.18;6.10;;;;;;;16.35;100.00;100466.69;5026294;28;20036;-76
2022/07/19 05:47:32;;;;;;;11.00;5.82;;;;;;;16.54;100.00;100481.13;5032958;28;20543;-77
2022/07/19 05:49:59;;;;;;;7.57;5.53;;;;;;;16.64;100.00;100495.88;5044632;28;20032;-77
2022/07/19 05:52:25;;;;;;;11.65;6.93;;;;;;;16.68;100.00;100488.13;5045699;28;20037;-76
2022/07/19 05:54:50;;;;;;;9.55;6.28;;;;;;;16.69;100.00;100477.03;5048335;28;20037;-75
2022/07/19 05:57:16;;;;;;;10.90;6.60;;;;;;;16.83;100.00;100482.38;5062771;28;20054;-77
2022/07/19 05:59:42;;;;;;;6.80;4.53;;;;;;;16.97;100.00;100478.47;5030862;28;20032;-76
2022/07/19 06:02:07;;;;;;;8.13;4.45;;;;;;;17.06;100.00;100484.44;5048330;28;20021;-75
2022/07/19 06:04:33;;;;;;;9.32;6.15;;;;;;;16.94;100.00;100470.78;5035712;28;20052;-76
2022/07/19 06:06:58;;;;;;;8.82;6.00;;;;;;;17.06;100.00;100501.56;5008253;28;20459;-75
2022/07/19 06:09:24;;;;;;;11.70;6.60;;;;;;;17.06;100.00;100515.16;5008182;28;20035;-79
2022/07/19 06:11:51;;;;;;;13.90;7.20;;;;;;;16.99;100.00;100506.25;5015807;28;20090;-76
2022/07/19 06:14:17;;;;;;;10.27;6.00;;;;;;;16.98;100.00;100509.19;5042285;28;20044;-76
2022/07/19 06:16:42;;;;;;;7.07;4.78;;;;;;;16.96;100.00;100520.25;5032608;28;20051;-76
2022/07/19 06:19:10;;;;;;;11.57;6.32;;;;;;;16.99;100.00;100508.13;5049728;28;20103;-75
2022/07/19 06:21:35;;;;;;;12.85;6.30;;;;;;;16.97;100.00;100496.66;5025554;28;20044;-77
2022/07/19 06:24:01;;;;;;;15.70;8.18;;;;;;;17.01;100.00;100501.41;5068195;28;20039;-77
2022/07/19 06:26:26;;;;;;;12.75;7.35;;;;;;;17.04;100.00;100498.28;5047654;28;20470;-76
2022/07/19 06:28:53;;;;;;;9.27;5.60;;;;;;;17.12;100.00;100503.41;5044623;28;20029;-76
2022/07/19 06:31:19;;;;;;;12.90;6.47;;;;;;;17.13;100.00;100494.19;5026184;28;20129;-76
2022/07/19 06:33:46;;;;;;;11.15;6.93;;;;;;;17.13;100.00;100485.22;5027711;28;20131;-77
2022/07/19 06:36:12;;;;;;;9.80;5.78;;;;;;;17.25;100.00;100496.16;5017735;28;20466;-76
2022/07/19 06:38:42;;;;;;;14.05;6.78;;;;;;;17.27;100.00;100497.59;5031475;28;20028;-78
2022/07/19 06:41:08;;;;;;;8.38;5.10;;;;;;;17.32;100.00;100505.88;5033331;28;20032;-76
2022/07/19 06:43:34;;;;;;;11.60;7.30;;;;;;;17.25;100.00;100493.44;5047083;28;20040;-78
2022/07/19 06:46:00;;;;;;;9.23;5.75;;;;;;;17.39;100.00;100500.38;5011376;28;20505;-77
2022/07/19 06:48:26;;;;;;;9.57;6.55;;;;;;;17.43;100.00;100507.00;5067673;28;20036;-77
2022/07/19 06:50:51;;;;;;;13.82;7.10;;;;;;;17.44;100.00;100503.25;5043009;28;20449;-77
2022/07/19 06:53:17;;;;;;;9.50;6.32;;;;;;;17.62;100.00;100502.38;5010628;28;20086;-78
2022/07/19 06:55:52;;;;;;;9.77;6.22;;;;;;;17.69;100.00;100505.88;5044679;28;20064;-77
2022/07/19 06:58:19;;;;;;;11.50;6.20;;;;;;;17.88;100.00;100512.13;5031383;28;20078;-78
2022/07/19 07:00:48;;;;;;;8.85;5.55;;;;;;;18.01;100.00;100503.78;5050238;28;20029;-76
2022/07/19 07:03:15;;;;;;;12.77;6.82;;;;;;;18.18;100.00;100506.69;5046167;28;20037;-76
2022/07/19 07:05:40;;;;;;;10.43;5.90;;;;;;;18.19;100.00;100497.44;5062730;28;20035;-77
2022/07/19 07:08:06;;;;;;;18.58;6.60;;;;;;;18.21;100.00;100500.78;5048726;28;20028;-77
2022/07/19 07:10:32;;;;;;;9.20;5.63;;;;;;;18.16;100.00;100488.94;5017430;28;20095;-76
2022/07/19 07:12:58;;;;;;;8.55;5.20;;;;;;;18.16;100.00;100489.75;5052414;28;20068;-75
2022/07/19 07:15:24;;;;;;;8.32;5.15;;;;;;;18.20;100.00;100485.50;5050501;28;20044;-76
2022/07/19 07:17:49;;;;;;;8.93;5.30;;;;;;;18.15;100.00;100482.66;5043737;28;20044;-75
2022/07/19 07:20:15;;;;;;;8.60;5.57;;;;;;;18.18;100.00;100475.94;5054080;28;20029;-76
2022/07/19 07:22:44;;;;;;;7.00;4.07;;;;;;;18.15;100.00;100471.78;5036760;28;20087;-76
2022/07/19 07:25:09;;;;;;;10.35;5.15;;;;;;;18.13;100.00;100475.81;5036393;28;20028;-77
2022/07/19 07:27:35;;;;;;;9.23;5.70;;;;;;;18.11;100.00;100465.13;5024101;28;20037;-77
2022/07/19 07:30:01;;;;;;;7.28;4.10;;;;;;;18.23;100.00;100476.88;5045482;28;20364;-76
2022/07/19 07:32:26;;;;;;;6.65;4.43;;;;;;;18.24;100.00;100455.94;5036883;28;20051;-78
2022/07/19 07:34:53;;;;;;;11.90;6.10;;;;;;;18.30;100.00;100465.88;5053981;28;20078;-79
2022/07/19 07:37:19;;;;;;;18.23;5.30;;;;;;;18.24;100.00;100483.16;5028588;28;20032;-76
2022/07/19 07:39:45;;;;;;;10.65;6.18;;;;;;;18.13;100.00;100473.09;5065527;28;20049;-77
2022/07/19 07:42:10;;;;;;;8.05;5.53;;;;;;;17.97;100.00;100469.94;5045787;28;20032;-76
2022/07/19 07:44:36;;;;;;;11.27;6.70;;;;;;;17.85;100.00;100476.41;5013685;28;20038;-77
2022/07/19 07:47:02;;;;;;;12.30;6.60;;;;;;;17.79;100.00;100478.16;5028687;28;20063;-76
2022/07/19 07:49:29;;;;;;;9.32;5.88;;;;;;;17.70;100.00;100487.66;5031195;28;20531;-77
2022/07/19 07:51:55;;;;;;;11.00;6.45;;;;;;;17.64;100.00;100505.72;5039250;28;20050;-76
2022/07/19 07:54:21;;;;;;;8.35;5.50;;;;;;;17.59;100.00;100519.16;5014061;28;20080;-76
2022/07/19 07:56:47;;;;;;;10.35;6.57;;;;;;;17.50;100.00;100510.50;5049376;28;20047;-76
2022/07/19 07:59:13;;;;;;;12.60;7.13;;;;;;;17.67;100.00;100520.75;5019983;28;20036;-77
2022/07/19 08:01:39;;;;;;;11.30;6.43;;;;;;;17.62;100.00;100528.75;5021898;28;20408;-77
2022/07/19 08:04:05;;;;;;;11.98;6.95;;;;;;;17.57;100.00;100524.84;5035282;28;20032;-78
2022/07/19 08:06:31;;;;;;;9.02;5.50;;;;;;;17.61;100.00;100524.38;5036108;28;20051;-78
2022/07/19 08:08:57;;;;;;;11.00;7.18;;;;;;;17.68;100.00;100541.47;5012927;28;20156;-80
2022/07/19 08:11:23;;;;;;;12.75;7.45;;;;;;;17.78;100.00;100544.44;5033565;28;20448;-77
2022/07/19 08:13:48;;;;;;;11.75;6.43;;;;;;;17.91;100.00;100532.59;5018691;28;20043;-76
2022/07/19 08:16:16;;;;;;;9.73;5.75;;;;;;;18.00;100.00;100537.50;5040059;28;20064;-77
2022/07/19 08:18:42;;;;;;;11.75;6.47;;;;;;;18.09;100.00;100529.84;5041889;28;20075;-80
2022/07/19 08:21:08;;;;;;;7.20;5.43;;;;;;;18.08;100.00;100527.38;5043736;28;20368;-77
2022/07/19 08:23:33;;;;;;;10.98;6.43;;;;;;;17.98;100.00;100523.28;5047336;28;20036;-77
2022/07/19 08:25:59;;;;;;;9.98;5.53;;;;;;;17.93;100.00;100536.75;5029895;28;20402;-77
2022/07/19 08:28:25;;;;;;;8.85;5.55;;;;;;;17.82;100.00;100525.81;5038751;28;20474;-78
2022/07/19 08:30:50;;;;;;;9.65;5.47;;;;;;;17.91;100.00;100533.41;5068350;28;20484;-77
2022/07/19 08:33:16;;;;;;;10.23;5.93;;;;;;;17.94;100.00;100546.59;5029592;28;20036;-79
2022/07/19 08:35:42;;;;;;;9.20;5.70;;;;;;;17.87;100.00;100534.97;5032600;28;20041;-76
2022/07/19 08:38:07;;;;;;;8.30;5.50;;;;;;;18.07;100.00;100542.00;5048575;28;20031;-76
2022/07/19 08:40:34;;;;;;;7.25;4.25;;;;;;;18.46;100.00;100525.09;5034460;28;20033;-77
2022/07/19 08:43:02;;;;;;;7.72;4.82;;;;;;;18.79;96.66;100537.38;5034388;28;20079;-79
2022/07/19 08:45:29;;;;;;;7.28;4.43;;;;;;;18.71;96.00;100534.97;5045586;28;20029;-75
2022/07/19 08:48:06;;;;;;;7.93;5.07;;;;;;;18.64;97.96;100536.97;5034721;28;20072;-85
2022/07/19 08:50:32;;;;;;;4.38;3.33;;;;;;;18.67;98.12;100531.03;5050215;28;20611;-77
2022/07/19 08:52:59;;;;;;;6.85;4.70;;;;;;;18.85;98.03;100532.88;5049948;28;20069;-78
2022/07/19 08:55:25;;;;;;;7.53;4.40;;;;;;;18.91;95.29;100531.94;5031415;28;20063;-78
2022/07/19 08:57:56;;;;;;;6.47;4.53;;;;;;;18.87;94.35;100538.94;5046526;28;20352;-80
2022/07/19 09:00:23;;;;;;;6.88;4.85;;;;;;;18.75;94.91;100563.41;5032051;28;20124;-79
2022/07/19 09:03:01;;;;;;;7.78;5.15;;;;;;;18.62;96.55;100569.88;5040295;28;20033;-78
2022/07/19 09:05:27;;;;;;;6.80;4.53;;;;;;;18.55;96.73;100576.47;5048068;28;20351;-81
2022/07/19 09:08:13;;;;;;;8.90;5.32;;;;;;;18.58;97.23;100579.59;5050350;28;20094;-77
2022/07/19 09:13:34;;;;;;;9.27;5.22;;;;;;;18.44;98.49;100587.13;5037309;28;20122;-80
2022/07/19 09:16:00;;;;;;;9.85;5.57;;;;;;;18.44;98.23;100614.34;5039648;28;20043;-80
2022/07/19 09:18:27;;;;;;;8.45;5.25;;;;;;;18.35;97.14;100632.06;5036858;28;20040;-78
2022/07/19 09:20:58;;;;;;;10.75;5.40;;;;;;;18.21;97.92;100634.13;5055501;28;20446;-79
2022/07/19 09:27:08;;;;;;;8.68;5.53;;;;;;;18.12;99.76;100653.72;5067846;28;20118;-79
2022/07/19 09:29:37;;;;;;;9.00;5.75;;;;;;;18.08;100.00;100663.41;5041643;28;20119;-81
2022/07/19 09:32:07;;;;;;;9.40;5.65;;;;;;;18.04;100.00;100678.50;5035337;28;20028;-78
2022/07/19 09:34:34;;;;;;;9.10;6.00;;;;;;;17.92;100.00;100702.94;5030995;28;20387;-79
2022/07/19 09:37:15;;;;;;;10.77;6.20;;;;;;;17.64;100.00;100716.97;5052821;28;20033;-80
2022/07/19 09:39:45;;;;;;;11.35;6.15;;;;;;;17.47;100.00;100720.25;5035727;28;20036;-78
2022/07/19 09:42:16;;;;;;;10.25;6.22;;;;;;;17.38;100.00;100705.25;5050745;28;20117;-77
2022/07/19 09:44:43;;;;;;;9.45;5.63;;;;;;;17.42;100.00;100706.50;5064311;28;20036;-77
2022/07/19 09:47:09;;;;;;;6.43;3.78;;;;;;;17.41;100.00;100698.56;5047285;28;20032;-79
2022/07/19 09:49:35;;;;;;;11.05;5.85;;;;;;;17.36;100.00;100677.50;5034738;28;20063;-78
2022/07/19 09:52:01;;;;;;;9.05;6.35;;;;;;;17.29;100.00;100654.97;5051023;28;20123;-76
2022/07/19 09:54:29;;;;;;;9.90;6.03;;;;;;;17.22;100.00;100638.72;5037249;28;20059;-76
2022/07/19 09:56:56;;;;;;;10.10;6.85;;;;;;;17.25;100.00;100632.00;5054059;28;20049;-76
2022/07/19 09:59:24;;;;;;;10.38;5.90;;;;;;;17.25;100.00;100610.28;5045276;28;20082;-77
2022/07/19 10:01:52;;;;;;;11.40;6.90;;;;;;;17.33;100.00;100604.53;5032070;28;20098;-78
2022/07/19 10:04:20;;;;;;;13.00;7.20;;;;;;;17.53;100.00;100602.47;5027693;28;20032;-77
2022/07/19 10:06:47;;;;;;;12.35;6.57;;;;;;;17.68;100.00;100609.44;5038297;28;20024;-77
2022/07/19 10:09:15;;;;;;;11.30;7.43;;;;;;;17.75;100.00;100627.31;5018093;28;20036;-76
2022/07/19 10:11:41;;;;;;;12.13;7.70;;;;;;;17.99;100.00;100614.75;5037141;28;20028;-78
2022/07/19 10:14:08;;;;;;;13.13;7.97;;;;;;;18.46;100.00;100589.59;5019207;28;20032;-76
2022/07/19 10:16:40;;;;;;;11.50;7.40;;;;;;;18.91;100.00;100589.13;5031046;28;20040;-76
2022/07/19 10:19:12;;;;;;;12.52;7.05;;;;;;;18.96;100.00;100583.81;5031409;28;20105;-79
2022/07/19 10:21:39;;;;;;;11.95;7.03;;;;;;;18.91;100.00;100585.59;5051880;28;20417;-77
2022/07/19 10:24:04;;;;;;;9.82;5.55;;;;;;;18.83;100.00;100575.88;5018238;28;20044;-78
2022/07/19 10:26:34;;;;;;;8.52;5.05;;;;;;;18.72;100.00;100585.66;5056331;28;20947;-80
2022/07/19 10:29:15;;;;;;;10.98;5.78;;;;;;;18.32;100.00;100594.41;5030213;28;20098;-78
2022/07/19 10:31:42;;;;;;;9.68;5.88;;;;;;;18.09;100.00;100577.97;5047010;28;20050;-81
2022/07/19 10:34:11;;;;;;;9.48;5.65;;;;;;;17.99;100.00;100563.06;5012529;28;20090;-78
2022/07/19 10:36:38;;;;;;;8.38;5.05;;;;;;;17.78;100.00;100528.13;5021217;28;20512;-78
2022/07/19 10:39:38;;;;;;;7.63;5.28;;;;;;;18.00;100.00;100564.69;5011803;28;20071;-78
2022/07/19 10:42:09;;;;;;;9.48;5.75;;;;;;;18.30;100.00;100550.25;4990568;28;20032;-77
2022/07/19 10:44:54;;;;;;;9.23;6.07;;;;;;;19.16;98.28;100528.13;5049972;28;20111;-78
2022/07/19 10:47:22;;;;;;;8.52;6.45;;;;;;;19.76;93.43;100525.91;5062613;28;20029;-80
2022/07/19 10:49:49;;;;;;;9.57;5.35;;;;;;;20.07;92.25;100529.22;5029022;28;20070;-79
2022/07/19 10:52:26;;;;;;;9.98;5.68;;;;;;;20.30;89.89;100513.81;5031363;28;20513;-80
2022/07/19 10:55:17;;;;;;;7.57;4.78;;;;;;;20.10;91.21;100509.63;5053304;28;20279;-77
2022/07/19 10:57:48;;;;;;;10.48;5.72;;;;;;;19.90;91.94;100495.59;5065044;28;20032;-78
2022/07/19 11:00:21;;;;;;;7.05;6.30;;;;;;;19.75;89.96;100483.31;5035034;28;20036;-78
2022/07/19 11:02:48;;;;;;;;;;;;;;;19.62;90.89;100486.31;5027456;28;20486;-78
2022/07/19 11:05:23;;;;;;;8.50;5.70;;;;;;;19.38;91.29;100461.00;5053068;28;19947;-78
2022/07/19 11:07:54;;;;;;;10.48;4.65;;;;;;;19.42;92.14;100456.72;5027275;28;20031;-78
2022/07/19 11:10:28;;;;;;;9.20;5.88;;;;;;;19.40;90.59;100447.16;5051974;28;20028;-80
2022/07/19 11:12:58;;;;;;;8.02;5.70;;;;;;;19.32;92.07;100451.09;5034960;28;20479;-77
2022/07/19 11:15:27;;;;;;;8.45;5.80;;;;;;;19.45;90.41;100426.25;5054009;28;20498;-82
2022/07/19 11:17:57;;;;;;;9.02;5.32;;;;;;;19.89;88.08;100429.28;5013860;28;20055;-81
2022/07/19 11:20:25;;;;;;;8.20;5.05;;;;;;;20.47;84.13;100435.44;5029326;28;20048;-78